Data for 09/06/2009

Time Sea-Level Adjusted Pressure Absolute Pressure Temperature Relative Humidity Dew Point   
(mb) (inHg) (mb) (inHg) (C) (F) (%) (C) (F)
00:05 1016 30 845 24.95 20.2 68.4 37 5.3 41.6
00:10 1016 30 845 24.95 20.3 68.5 38 5.8 42.5
00:15 1016 30 845 24.95 19.9 67.9 42 6.8 44.2
00:20 1016 30 845 24.95 19.9 67.8 38 5.3 41.6
00:25 1016 30 845 24.95 20.3 68.5 37 5.3 41.5
00:30 1016 30 845 24.95 20.3 68.6 37 5.4 41.6
00:35 1016 30 845 24.95 20.4 68.7 37 5.4 41.8
00:40 1016 30 845 24.95 20.4 68.7 37 5.3 41.5
00:45 1016 30 845 24.95 20.4 68.8 37 5.6 42
00:50 1016 30 845 24.95 20.3 68.6 37 5.1 41.3
00:55 1016 30 845 24.95 20.4 68.7 38 5.8 42.4
01:00 1016 30 845 24.95 20.3 68.5 37 5.2 41.4
01:05 1016 30 845 24.95 20.2 68.3 38 5.7 42.2
01:10 1016 30 845 24.95 19.9 67.9 40 6.2 43.2
01:15 1016 30 845 24.95 19.7 67.5 39 5.5 41.9
01:20 1016 30 845 24.95 19.9 67.8 39 5.8 42.5
01:25 1016 30 845 24.95 19.8 67.6 40 6 42.8
01:30 1016 30 845 24.95 19.6 67.3 40 6 42.8
01:35 1016 30 845 24.95 19.3 66.7 41 5.9 42.7
01:40 1016 30 845 24.95 19.4 66.8 41 6 42.8
01:45 1016 30 845 24.95 19.3 66.8 41 6 42.7
01:50 1016 30 845 24.95 19.3 66.7 41 5.9 42.6
01:55 1016 30 845 24.95 19.3 66.8 40 5.6 42.1
02:00 1016 30 845 24.95 19.6 67.2 40 5.6 42.1
02:05 1016 30 845 24.95 19.4 66.9 41 6.1 42.9
02:10 1016 30 845 24.95 19.1 66.4 41 5.8 42.5
02:15 1016 30 845 24.95 19.2 66.5 40 5.4 41.7
02:20 1016 30 845 24.95 19.3 66.7 41 5.9 42.5
02:25 1016 30 845 24.95 19.1 66.4 41 5.6 42.1
02:30 1016 30 845 24.95 19.1 66.3 43 6.2 43.1
02:35 1016 30 845 24.95 18.9 66 42 5.9 42.7
02:40 1016 30 845 24.95 18.9 66 41 5.4 41.7
02:45 1016 30 845 24.95 19.2 66.5 41 5.7 42.3
02:50 1016 30 845 24.95 19.2 66.5 41 5.6 42.1
02:55 1016 30 845 24.95 19.1 66.3 41 5.8 42.4
03:00 1016 30 845 24.95 18.8 65.9 42 5.7 42.3
03:05 1016 30 845 24.95 18.8 65.9 42 5.7 42.3
03:10 1016 30 845 24.95 18.8 65.8 41 5.5 42
03:15 1016 30 845 24.95 18.8 65.9 41 5.5 41.8
03:20 1016 30 845 24.95 19 66.2 41 5.5 41.9
03:25 1016 30 845 24.95 19 66.2 41 5.7 42.2
03:30 1016 30 845 24.95 19 66.3 41 5.5 41.9
03:35 1016 30 845 24.95 19 66.2 41 5.5 42
03:40 1016 30 845 24.95 19 66.3 41 5.6 42.1
03:45 1016 30 845 24.95 19 66.2 41 5.6 42.2
03:50 1016 30 845 24.95 18.9 66.1 42 5.8 42.4
03:55 1016 30 845 24.95 18.9 66 41 5.5 41.9
04:00 1016 30 845 24.95 19 66.3 41 5.5 42
04:05 1016 30 845 24.95 19 66.2 41 5.4 41.8
04:10 1016 30 845 24.95 19.2 66.5 40 5.5 41.9
04:15 1016 30 845 24.95 19.1 66.4 41 5.7 42.3
04:20 1016 30 845 24.95 19 66.1 41 5.4 41.7
04:25 1016 30 845 24.95 19.1 66.4 41 5.7 42.3
04:30 1016 30 845 24.95 18.9 66.1 42 5.9 42.7
04:35 1016 30 845 24.95 18.8 65.9 43 6 42.7
04:40 1016 30 845 24.95 18.9 66 42 6 42.8
04:45 1016 30 845 24.95 18.7 65.6 43 6.1 43
04:50 1016 30 845 24.95 18.6 65.4 44 6.1 43
04:55 1016 30 845 24.95 18.5 65.3 44 6.1 43
05:00 1016 30 845 24.95 18.5 65.3 43 5.8 42.4
05:05 1016 30 845 24.95 18.7 65.7 43 6 42.7
05:10 1016 30 845 24.95 19.2 66.5 44 6.7 44.1
05:15 1016 30 845 24.95 19.3 66.7 42 6.3 43.4
05:20 1016 30 845 24.95 18.8 65.9 43 6.3 43.3
05:25 1016 30 845 24.95 18.5 65.3 45 6.6 43.8
05:30 1016 30 845 24.95 18.2 64.7 44 5.8 42.4
05:35 1016 30 845 24.95 18.7 65.6 43 6 42.7
05:40 1016 30 845 24.95 18.8 65.8 43 6.1 42.9
05:45 1016 30 845 24.95 18.8 65.8 42 5.8 42.4
05:50 1016 30 845 24.95 18.9 66 41 5.4 41.8
05:55 1016 30 845 24.95 19.5 67 40 5.7 42.3
06:00 1016 30 845 24.95 19.4 66.9 42 6.3 43.4
06:05 1016 30 845 24.95 20 67.9 37 4.9 40.8
06:10 1016 30 845 24.95 20.6 69.1 36 5.3 41.6
06:15 1016 30 845 24.95 20.2 68.4 39 5.9 42.7
06:20 1016 30 845 24.95 20.2 68.3 37 5.4 41.6
06:25 1016 30 845 24.95 20.8 69.4 37 5.9 42.6
06:30 1016 30 845 24.95 20.4 68.7 39 6 42.8
06:35 1016 30 845 24.95 19.7 67.4 41 6.2 43.2
06:40 1016 30 845 24.95 19.2 66.6 42 6.1 43
06:45 1016 30 845 24.95 18.9 65.9 44 6.4 43.5
06:50 1016 30 845 24.95 18.8 65.8 41 5.3 41.6
06:55 1016 30 845 24.95 19.3 66.7 42 6.2 43.2
07:00 1016 30 845 24.95 19.1 66.3 42 5.9 42.7
07:05 1016 30 845 24.95 19 66.2 42 6.1 43
07:10 1016 30 845 24.95 18.7 65.7 44 6.3 43.3
07:15 1016 30 845 24.95 18.5 65.4 45 6.5 43.7
07:20 1016 30 845 24.95 18.3 64.9 44 6.1 42.9
07:25 1016 30 845 24.95 18.5 65.4 44 6.1 43
07:30 1016 30 845 24.95 18.8 65.8 43 6 42.8
07:35 1016 30 845 24.95 18.8 65.8 43 6 42.8
07:40 1016 30 845 24.95 19 66.2 43 6.3 43.4
07:45 1016 30 845 24.95 18.9 66 44 6.4 43.5
07:50 1016 30 845 24.95 18.9 66 43 6.3 43.4
07:55 1016 30 845 24.95 18.9 66.1 44 6.5 43.6
08:00 1016 30 845 24.95 19 66.3 44 6.5 43.8
08:05 1016 30 845 24.95 19 66.2 44 6.6 43.9
08:10 1016 30 845 24.95 19.1 66.4 44 6.9 44.4
08:15 1016 30 845 24.95 19.1 66.5 45 7 44.6
08:20 1016 30 845 24.95 19 66.3 44 6.6 43.9
08:25 1016 30 845 24.95 19.5 67.1 42 6.4 43.6
08:30 1016 30 845 24.95 19.7 67.5 42 6.8 44.2
08:35 1016 30 845 24.95 20 68 43 7.2 45
08:40 1016 30 845 24.95 20.3 68.5 42 7 44.6
08:45 1016 30 845 24.95 20.5 68.9 42 7.4 45.3
08:50 1016 30 845 24.95 20.7 69.3 42 7.4 45.3
08:55 1016 30 845 24.95 20.9 69.6 41 7.2 45
09:00 1016 30 845 24.95 21.1 69.9 41 7.4 45.3
09:05 1016 30 845 24.95 21.2 70.2 40 7.1 44.8
09:10 1016 30 845 24.95 21.4 70.6 39 6.9 44.4
09:15 1016 30 845 24.95 21.6 70.8 37 6.6 43.9
09:20 1016 30 845 24.95 21.6 71 37 6.5 43.7
09:25 1016 30 845 24.95 21.8 71.3 38 7.2 45
09:30 1016 30 845 24.95 21.9 71.4 37 6.9 44.3
09:35 1016 30 845 24.95 22 71.6 38 7.2 45
09:40 1016 30 845 24.95 22 71.5 38 7.2 45
09:45 1016 30 845 24.95 22.2 71.9 35 6.2 43.2
09:50 1016 30 845 24.95 22.7 72.9 35 6.7 44.1
09:55 1016 30 845 24.95 22.9 73.2 37 7.7 45.9
10:00 1016 30 845 24.95 23.2 73.8 34 6.7 44.1
10:05 1016 30 845 24.95 23.4 74.2 39 9 48.2
10:10 1016 30 845 24.95 23.8 74.8 33 6.9 44.3
10:15 1016 30 845 24.95 24.2 75.5 32 6.7 44.1
10:20 1016 30 845 24.95 25.1 77.1 29 6.3 43.3
10:25 1016 30 845 24.95 25.7 78.2 31 7.7 45.9
10:30 1016 30 845 24.95 25.8 78.5 30 7.1 44.8
10:35 1016 30 845 24.95 26.3 79.3 29 7.2 45
10:40 1016 30 845 24.95 26.3 79.3 26 5.3 41.6
10:45 1016 30 845 24.95 26.2 79.1 26 5.6 42.1
10:50 1016 30 845 24.95 26.3 79.3 27 5.9 42.7
10:55 1016 30 845 24.95 26.2 79.1 26 5.2 41.3
11:00 1015 29.97 845 24.95 25.7 78.2 27 5.5 42
11:05 1015 29.97 845 24.95 25.4 77.7 27 5.1 41.2
11:10 1015 29.97 845 24.95 25.6 78 27 5.5 41.8
11:15 1015 29.97 845 24.95 25.5 77.9 25 4.2 39.6
11:20 1015 29.97 845 24.95 25.5 77.9 26 4.7 40.4
11:25 1015 29.97 845 24.95 25.5 77.9 26 4.8 40.6
11:30 1015 29.97 845 24.95 25.4 77.8 27 5.6 42
11:35 1015 29.97 845 24.95 25.5 77.9 25 4.4 40
11:40 1015 29.97 845 24.95 25.5 77.9 28 5.7 42.3
11:45 1015 29.97 845 24.95 25.3 77.5 27 5.3 41.6
11:50 1015 29.97 845 24.95 25.4 77.7 26 4.5 40.1
11:55 1015 29.97 845 24.95 25.7 78.2 25 4.2 39.5
12:00 1015 29.97 845 24.95 25.9 78.5 24 4.2 39.6
12:05 1015 29.97 844 24.92 25.7 78.3 27 5.4 41.8
12:10 1015 29.97 844 24.92 25.5 77.8 29 6.3 43.3
12:15 1015 29.97 844 24.92 25.4 77.6 31 7 44.7
12:20 1015 29.97 844 24.92 25.4 77.7 30 6.6 44
12:25 1015 29.97 844 24.92 25.8 78.4 26 5.3 41.5
12:30 1015 29.97 844 24.92 26.2 79.1 26 5.5 41.9
12:35 1015 29.97 844 24.92 26.1 79 25 4.9 40.9
12:40 1015 29.97 844 24.92 26.1 79 24 4.4 39.9
12:45 1015 29.97 844 24.92 26.5 79.6 23 3.9 39.1
12:50 1015 29.97 844 24.92 26.7 80.1 21 2.9 37.3
12:55 1015 29.97 844 24.92 26.9 80.3 21 3.1 37.6
13:00 1015 29.97 844 24.92 26.9 80.5 22 3.6 38.6
13:05 1015 29.97 844 24.92 26.6 79.9 22 3.2 37.8
13:10 1015 29.97 844 24.92 26.7 80.1 22 3.7 38.6
13:15 1015 29.97 844 24.92 27 80.7 22 3.9 38.9
13:20 1014 29.94 844 24.92 27.3 81.1 22 3.9 39
13:25 1014 29.94 844 24.92 27.3 81.2 22 3.9 38.9
13:30 1014 29.94 844 24.92 27.6 81.6 22 4.5 40.1
13:35 1014 29.94 844 24.92 27.5 81.6 21 3.8 38.9
13:40 1014 29.94 843 24.89 27.6 81.7 21 3.5 38.2
13:45 1014 29.94 843 24.89 27.8 82.1 21 3.9 39
13:50 1014 29.94 843 24.89 27.6 81.6 21 3.3 38
13:55 1014 29.94 843 24.89 27.8 82 21 3.8 38.8
14:00 1014 29.94 843 24.89 27.6 81.6 21 3.7 38.7
14:05 1014 29.94 843 24.89 27.3 81.1 21 3.5 38.4
14:10 1014 29.94 843 24.89 27.2 81 21 3.6 38.5
14:15 1014 29.94 843 24.89 27.3 81.2 21 3.5 38.3
14:20 1014 29.94 843 24.89 27.6 81.7 21 3.7 38.6
14:25 1014 29.94 843 24.89 27.7 81.8 20 3.2 37.8
14:30 1014 29.94 843 24.89 28.2 82.7 20 3.2 37.8
14:35 1014 29.94 843 24.89 28.1 82.5 21 3.7 38.7
14:40 1014 29.94 843 24.89 28 82.4 20 3 37.4
14:45 1014 29.94 843 24.89 28 82.3 20 3 37.3
14:50 1013 29.91 843 24.89 28 82.5 20 3.3 37.9
14:55 1013 29.91 843 24.89 27.9 82.3 21 3.6 38.5
15:00 1013 29.91 842 24.86 27.9 82.3 20 2.9 37.3
15:05 1013 29.91 842 24.86 28 82.4 20 2.9 37.3
15:10 1013 29.91 842 24.86 28.4 83 21 4.2 39.6
15:15 1013 29.91 842 24.86 28.4 83.2 20 3.7 38.7
15:20 1013 29.91 842 24.86 28.3 83 20 3.5 38.3
15:25 1013 29.91 842 24.86 28 82.5 19 2.7 36.9
15:30 1013 29.91 842 24.86 27.8 82 20 3.1 37.6
15:35 1013 29.91 842 24.86 27.5 81.5 22 4.1 39.3
15:40 1013 29.91 842 24.86 27.6 81.8 21 3.5 38.3
15:45 1013 29.91 842 24.86 27.5 81.6 23 4.6 40.2
15:50 1013 29.91 842 24.86 27.5 81.4 20 2.8 37.1
15:55 1013 29.91 842 24.86 27.8 82 19 2.1 35.8
16:00 1013 29.91 842 24.86 28.1 82.5 19 2.7 36.9
16:05 1013 29.91 842 24.86 28.3 83 19 2.8 37
16:10 1013 29.91 842 24.86 28.4 83 20 3.2 37.8
16:15 1013 29.91 842 24.86 28.4 83.1 19 2.5 36.5
16:20 1013 29.91 842 24.86 28.3 82.9 18 2.3 36.1
16:25 1013 29.91 842 24.86 28.1 82.5 19 2.8 37
16:30 1012 29.88 842 24.86 28.2 82.8 18 1.6 34.9
16:35 1012 29.88 842 24.86 28.5 83.2 15 -0.7 30.7
16:40 1012 29.88 842 24.86 28.7 83.6 15 -0.6 31
16:45 1012 29.88 842 24.86 28.5 83.3 15 -0.8 30.6
16:50 1012 29.88 842 24.86 28.3 82.9 18 1.8 35.3
16:55 1012 29.88 842 24.86 28.4 83.2 17 1.2 34.1
17:00 1012 29.88 842 24.86 28.8 83.8 14 -1.3 29.6
17:05 1012 29.88 842 24.86 28.7 83.6 14 -1.1 30
17:10 1012 29.88 841 24.83 28.6 83.5 14 -0.8 30.5
17:15 1012 29.88 841 24.83 28.5 83.4 12 -3 26.6
17:20 1012 29.88 841 24.83 28.5 83.3 13 -2.3 27.8
17:25 1012 29.88 841 24.83 28.7 83.7 12 -2.7 27.1
17:30 1012 29.88 841 24.83 28.7 83.6 13 -2.3 27.8
17:35 1012 29.88 841 24.83 28.6 83.5 13 -1.9 28.5
17:40 1012 29.88 841 24.83 28.6 83.5 14 -1.6 29.1
17:45 1012 29.88 841 24.83 28.5 83.4 14 -1 30.3
17:50 1012 29.88 841 24.83 28.3 82.9 13 -2.9 26.8
17:55 1012 29.88 841 24.83 28 82.3 13 -2.7 27.1
18:00 1012 29.88 841 24.83 28 82.3 13 -2.6 27.4
18:05 1012 29.88 841 24.83 27.7 81.9 14 -1.9 28.6
18:10 1012 29.88 841 24.83 27.3 81.2 13 -3 26.6
18:15 1012 29.88 841 24.83 27.3 81.1 12 -3.9 25
18:20 1012 29.88 842 24.86 27.4 81.4 13 -2.7 27.2
18:25 1012 29.88 842 24.86 27.3 81.1 13 -2.8 27
18:30 1012 29.88 842 24.86 27.1 80.7 13 -3.1 26.5
18:35 1012 29.88 842 24.86 26.9 80.4 13 -3.4 25.8
18:40 1012 29.88 842 24.86 26.7 80.1 14 -2.9 26.8
18:45 1013 29.91 842 24.86 26.4 79.4 15 -2.4 27.6
18:50 1013 29.91 842 24.86 26.1 78.9 14 -3 26.6
18:55 1013 29.91 842 24.86 26.1 79 15 -2.7 27.2
19:00 1013 29.91 842 24.86 26.4 79.5 14 -3.2 26.3
19:05 1013 29.91 842 24.86 26.4 79.5 14 -2.9 26.8
19:10 1013 29.91 842 24.86 26.4 79.4 13 -3.7 25.3
19:15 1013 29.91 842 24.86 26.2 79.1 14 -3.3 26.1
19:20 1013 29.91 842 24.86 25.8 78.4 15 -2.4 27.7
19:25 1013 29.91 842 24.86 25.1 77.2 15 -2.7 27.1
19:30 1013 29.91 842 24.86 24.8 76.7 15 -3.1 26.4
19:35 1013 29.91 842 24.86 24.6 76.3 16 -2.2 28
19:40 1013 29.91 842 24.86 24.2 75.6 16 -2.8 26.9
19:45 1013 29.91 842 24.86 23.9 75.1 17 -2.3 27.8
19:50 1013 29.91 842 24.86 23.7 74.7 17 -2.6 27.3
19:55 1013 29.91 842 24.86 23.6 74.5 17 -2.8 26.9
20:00 1013 29.91 843 24.89 23.6 74.4 20 -0.4 31.3
20:05 1014 29.94 843 24.89 23.1 73.5 28 3.5 38.4
20:10 1014 29.94 843 24.89 22.4 72.3 31 4.4 40
20:15 1014 29.94 843 24.89 21.8 71.3 32 4.6 40.3
20:20 1014 29.94 843 24.89 21.5 70.7 33 4.8 40.6
20:25 1014 29.94 843 24.89 21.2 70.1 34 5 41
20:30 1014 29.94 843 24.89 20.8 69.5 35 5.1 41.2
20:35 1014 29.94 844 24.92 20.5 69 36 5 41
20:40 1014 29.94 844 24.92 20.2 68.4 36 5 41
20:45 1015 29.97 844 24.92 19.9 67.9 38 5.2 41.4
20:50 1015 29.97 844 24.92 19.7 67.4 38 5 41.1
20:55 1015 29.97 844 24.92 19.5 67 38 5 41
21:00 1015 29.97 844 24.92 18.8 65.9 44 6.3 43.3
21:05 1015 29.97 844 24.92 17.9 64.1 46 6.2 43.2
21:10 1015 29.97 845 24.95 17.1 62.7 48 6.2 43.2
21:15 1015 29.97 845 24.95 16.9 62.4 47 5.7 42.3
21:20 1016 30 845 24.95 17.1 62.7 47 5.9 42.6
21:25 1016 30 845 24.95 17.1 62.7 46 5.5 41.9
21:30 1016 30 845 24.95 17.4 63.4 44 5.2 41.3
21:35 1016 30 845 24.95 17.8 64 44 5.6 42
21:40 1016 30 845 24.95 17.4 63.2 45 5.4 41.7
21:45 1016 30 845 24.95 17.5 63.5 45 5.4 41.8
21:50 1016 30 845 24.95 17.2 63 46 5.7 42.3
21:55 1016 30 845 24.95 17 62.7 46 5.5 41.9
22:00 1016 30 845 24.95 17.2 62.9 46 5.7 42.2
22:05 1016 30 846 24.98 16.7 62.1 50 6.3 43.3
22:10 1016 30 846 24.98 15.9 60.5 52 6.2 43.2
22:15 1017 30.03 846 24.98 15.5 59.9 53 6 42.8
22:20 1017 30.03 846 24.98 15.6 60.1 51 5.5 41.8
22:25 1017 30.03 846 24.98 16 60.7 51 5.9 42.5
22:30 1016 30 846 24.98 15.6 60 53 6 42.8
22:35 1016 30 846 24.98 15.3 59.6 53 5.9 42.6
22:40 1017 30.03 846 24.98 15.4 59.7 52 5.6 42
22:45 1016 30 846 24.98 15.7 60.2 50 5.4 41.8
22:50 1016 30 846 24.98 16 60.8 49 5.4 41.7
22:55 1016 30 846 24.98 16.1 61 49 5.4 41.8
23:00 1017 30.03 846 24.98 16.1 60.9 50 5.7 42.2
23:05 1017 30.03 846 24.98 16 60.7 50 5.7 42.2
23:10 1017 30.03 846 24.98 15.9 60.7 49 5.4 41.7
23:15 1017 30.03 846 24.98 16 60.9 49 5.4 41.7
23:20 1017 30.03 846 24.98 16 60.7 49 5.5 41.8
23:25 1017 30.03 846 24.98 16 60.7 50 5.5 41.9
23:30 1017 30.03 846 24.98 15.9 60.6 50 5.6 42
23:35 1017 30.03 846 24.98 15.7 60.3 49 5.3 41.5
23:40 1017 30.03 846 24.98 15.9 60.6 50 5.5 41.9
23:45 1017 30.03 846 24.98 15.9 60.5 50 5.5 41.9
23:50 1017 30.03 846 24.98 15.7 60.2 50 5.4 41.8
23:55 1017 30.03 846 24.98 15.6 60.1 51 5.5 41.9
24:00 1017 30.03 846 24.98 15.5 59.8 52 5.8 42.4